sensor_id;sensor_type;location;lat;lon;timestamp;P1;durP1;ratioP1;P2;durP2;ratioP2
4521;SDS011;2273;48.464;11.926;2023-04-24T00:00:35;7.27;;;3.80;;
4521;SDS011;2273;48.464;11.926;2023-04-24T00:03:01;4.90;;;3.60;;
4521;SDS011;2273;48.464;11.926;2023-04-24T00:05:28;6.50;;;3.87;;
4521;SDS011;2273;48.464;11.926;2023-04-24T00:07:53;6.23;;;3.27;;
4521;SDS011;2273;48.464;11.926;2023-04-24T00:10:19;5.07;;;3.53;;
4521;SDS011;2273;48.464;11.926;2023-04-24T00:12:45;4.83;;;3.67;;
4521;SDS011;2273;48.464;11.926;2023-04-24T00:15:10;6.67;;;3.40;;
4521;SDS011;2273;48.464;11.926;2023-04-24T00:17:36;4.83;;;3.53;;
4521;SDS011;2273;48.464;11.926;2023-04-24T00:20:02;5.30;;;3.47;;
4521;SDS011;2273;48.464;11.926;2023-04-24T00:22:30;4.73;;;3.20;;
4521;SDS011;2273;48.464;11.926;2023-04-24T00:24:55;3.63;;;2.80;;
4521;SDS011;2273;48.464;11.926;2023-04-24T00:27:21;4.70;;;3.93;;
4521;SDS011;2273;48.464;11.926;2023-04-24T00:29:46;6.07;;;3.20;;
4521;SDS011;2273;48.464;11.926;2023-04-24T00:32:12;5.20;;;3.40;;
4521;SDS011;2273;48.464;11.926;2023-04-24T00:34:38;5.70;;;4.17;;
4521;SDS011;2273;48.464;11.926;2023-04-24T00:37:03;5.20;;;3.43;;
4521;SDS011;2273;48.464;11.926;2023-04-24T00:39:29;5.90;;;2.97;;
4521;SDS011;2273;48.464;11.926;2023-04-24T00:41:54;4.40;;;3.27;;
4521;SDS011;2273;48.464;11.926;2023-04-24T00:44:21;5.73;;;3.23;;
4521;SDS011;2273;48.464;11.926;2023-04-24T00:46:47;4.77;;;2.87;;
4521;SDS011;2273;48.464;11.926;2023-04-24T00:49:17;5.80;;;3.43;;
4521;SDS011;2273;48.464;11.926;2023-04-24T00:51:43;6.03;;;4.23;;
4521;SDS011;2273;48.464;11.926;2023-04-24T00:54:11;4.47;;;3.20;;
4521;SDS011;2273;48.464;11.926;2023-04-24T00:56:36;4.57;;;3.70;;
4521;SDS011;2273;48.464;11.926;2023-04-24T00:59:03;6.43;;;3.47;;
4521;SDS011;2273;48.464;11.926;2023-04-24T01:01:29;7.30;;;3.60;;
4521;SDS011;2273;48.464;11.926;2023-04-24T01:03:58;4.97;;;3.70;;
4521;SDS011;2273;48.464;11.926;2023-04-24T01:06:24;4.50;;;3.00;;
4521;SDS011;2273;48.464;11.926;2023-04-24T01:08:53;7.40;;;3.43;;
4521;SDS011;2273;48.464;11.926;2023-04-24T01:11:19;5.20;;;3.90;;
4521;SDS011;2273;48.464;11.926;2023-04-24T01:13:46;5.20;;;3.50;;
4521;SDS011;2273;48.464;11.926;2023-04-24T01:16:13;4.40;;;3.87;;
4521;SDS011;2273;48.464;11.926;2023-04-24T01:18:39;7.20;;;3.30;;
4521;SDS011;2273;48.464;11.926;2023-04-24T01:21:06;5.70;;;3.70;;
4521;SDS011;2273;48.464;11.926;2023-04-24T01:23:33;7.40;;;4.00;;
4521;SDS011;2273;48.464;11.926;2023-04-24T01:26:00;9.03;;;2.90;;
4521;SDS011;2273;48.464;11.926;2023-04-24T01:28:25;5.63;;;3.47;;
4521;SDS011;2273;48.464;11.926;2023-04-24T01:30:51;9.27;;;3.87;;
4521;SDS011;2273;48.464;11.926;2023-04-24T01:33:21;6.70;;;2.90;;
4521;SDS011;2273;48.464;11.926;2023-04-24T01:35:47;5.33;;;3.47;;
4521;SDS011;2273;48.464;11.926;2023-04-24T01:38:13;5.03;;;3.43;;
4521;SDS011;2273;48.464;11.926;2023-04-24T01:40:39;4.40;;;3.20;;
4521;SDS011;2273;48.464;11.926;2023-04-24T01:43:05;5.33;;;4.00;;
4521;SDS011;2273;48.464;11.926;2023-04-24T01:45:30;5.07;;;3.20;;
4521;SDS011;2273;48.464;11.926;2023-04-24T01:47:56;3.93;;;3.17;;
4521;SDS011;2273;48.464;11.926;2023-04-24T01:50:22;3.77;;;3.10;;
4521;SDS011;2273;48.464;11.926;2023-04-24T01:52:48;4.23;;;3.03;;
4521;SDS011;2273;48.464;11.926;2023-04-24T01:55:14;3.93;;;3.40;;
4521;SDS011;2273;48.464;11.926;2023-04-24T01:57:40;4.43;;;3.30;;
4521;SDS011;2273;48.464;11.926;2023-04-24T02:00:05;4.60;;;3.70;;
4521;SDS011;2273;48.464;11.926;2023-04-24T02:02:41;4.30;;;3.40;;
4521;SDS011;2273;48.464;11.926;2023-04-24T02:05:07;8.47;;;3.10;;
4521;SDS011;2273;48.464;11.926;2023-04-24T02:07:35;3.63;;;2.53;;
4521;SDS011;2273;48.464;11.926;2023-04-24T02:10:00;3.93;;;2.90;;
4521;SDS011;2273;48.464;11.926;2023-04-24T02:12:26;4.03;;;2.67;;
4521;SDS011;2273;48.464;11.926;2023-04-24T02:14:52;5.43;;;3.67;;
4521;SDS011;2273;48.464;11.926;2023-04-24T02:17:17;4.10;;;2.87;;
4521;SDS011;2273;48.464;11.926;2023-04-24T02:19:44;4.20;;;3.20;;
4521;SDS011;2273;48.464;11.926;2023-04-24T02:22:09;3.50;;;3.07;;
4521;SDS011;2273;48.464;11.926;2023-04-24T02:24:36;6.37;;;3.50;;
4521;SDS011;2273;48.464;11.926;2023-04-24T02:27:02;4.70;;;2.90;;
4521;SDS011;2273;48.464;11.926;2023-04-24T02:29:28;3.50;;;2.90;;
4521;SDS011;2273;48.464;11.926;2023-04-24T02:31:53;4.27;;;3.30;;
4521;SDS011;2273;48.464;11.926;2023-04-24T02:34:18;5.40;;;3.40;;
4521;SDS011;2273;48.464;11.926;2023-04-24T02:36:44;4.07;;;3.30;;
4521;SDS011;2273;48.464;11.926;2023-04-24T02:39:09;4.40;;;3.23;;
4521;SDS011;2273;48.464;11.926;2023-04-24T02:41:35;4.30;;;2.90;;
4521;SDS011;2273;48.464;11.926;2023-04-24T02:44:00;3.80;;;3.27;;
4521;SDS011;2273;48.464;11.926;2023-04-24T02:46:26;5.00;;;3.13;;
4521;SDS011;2273;48.464;11.926;2023-04-24T02:48:51;3.83;;;2.63;;
4521;SDS011;2273;48.464;11.926;2023-04-24T02:51:17;4.17;;;3.20;;
4521;SDS011;2273;48.464;11.926;2023-04-24T02:53:42;5.93;;;2.93;;
4521;SDS011;2273;48.464;11.926;2023-04-24T02:56:08;14.97;;;3.50;;
4521;SDS011;2273;48.464;11.926;2023-04-24T02:58:33;5.10;;;2.73;;
4521;SDS011;2273;48.464;11.926;2023-04-24T03:00:59;4.80;;;2.70;;
4521;SDS011;2273;48.464;11.926;2023-04-24T03:03:25;4.20;;;3.10;;
4521;SDS011;2273;48.464;11.926;2023-04-24T03:05:51;4.50;;;2.83;;
4521;SDS011;2273;48.464;11.926;2023-04-24T03:08:17;6.83;;;2.87;;
4521;SDS011;2273;48.464;11.926;2023-04-24T03:10:42;4.60;;;3.47;;
4521;SDS011;2273;48.464;11.926;2023-04-24T03:13:08;4.37;;;2.90;;
4521;SDS011;2273;48.464;11.926;2023-04-24T03:15:33;3.73;;;2.57;;
4521;SDS011;2273;48.464;11.926;2023-04-24T03:17:59;3.43;;;2.37;;
4521;SDS011;2273;48.464;11.926;2023-04-24T03:20:26;3.23;;;2.50;;
4521;SDS011;2273;48.464;11.926;2023-04-24T03:22:52;3.23;;;2.53;;
4521;SDS011;2273;48.464;11.926;2023-04-24T03:25:18;3.90;;;2.43;;
4521;SDS011;2273;48.464;11.926;2023-04-24T03:27:44;5.97;;;3.00;;
4521;SDS011;2273;48.464;11.926;2023-04-24T03:30:21;4.40;;;2.40;;
4521;SDS011;2273;48.464;11.926;2023-04-24T03:32:53;3.77;;;2.70;;
4521;SDS011;2273;48.464;11.926;2023-04-24T03:35:23;3.90;;;3.20;;
4521;SDS011;2273;48.464;11.926;2023-04-24T03:37:49;4.40;;;2.33;;
4521;SDS011;2273;48.464;11.926;2023-04-24T03:40:35;3.40;;;2.90;;
4521;SDS011;2273;48.464;11.926;2023-04-24T03:43:03;4.80;;;2.73;;
4521;SDS011;2273;48.464;11.926;2023-04-24T03:45:28;2.93;;;2.17;;
4521;SDS011;2273;48.464;11.926;2023-04-24T03:47:55;4.20;;;2.87;;
4521;SDS011;2273;48.464;11.926;2023-04-24T03:50:21;3.90;;;3.17;;
4521;SDS011;2273;48.464;11.926;2023-04-24T03:52:46;4.60;;;2.00;;
4521;SDS011;2273;48.464;11.926;2023-04-24T03:55:22;2.93;;;2.47;;
4521;SDS011;2273;48.464;11.926;2023-04-24T03:57:47;2.77;;;2.10;;
4521;SDS011;2273;48.464;11.926;2023-04-24T04:00:20;3.50;;;2.23;;
4521;SDS011;2273;48.464;11.926;2023-04-24T04:02:52;3.90;;;2.20;;
4521;SDS011;2273;48.464;11.926;2023-04-24T04:05:18;3.77;;;2.97;;
4521;SDS011;2273;48.464;11.926;2023-04-24T04:07:44;2.97;;;2.37;;
4521;SDS011;2273;48.464;11.926;2023-04-24T04:10:09;10.20;;;2.93;;
4521;SDS011;2273;48.464;11.926;2023-04-24T04:12:36;3.17;;;2.63;;
4521;SDS011;2273;48.464;11.926;2023-04-24T04:15:02;3.30;;;2.50;;
4521;SDS011;2273;48.464;11.926;2023-04-24T04:17:29;4.53;;;2.50;;
4521;SDS011;2273;48.464;11.926;2023-04-24T04:19:55;3.17;;;2.13;;
4521;SDS011;2273;48.464;11.926;2023-04-24T04:22:22;3.57;;;2.30;;
4521;SDS011;2273;48.464;11.926;2023-04-24T04:24:49;3.70;;;3.10;;
4521;SDS011;2273;48.464;11.926;2023-04-24T04:27:17;5.87;;;2.63;;
4521;SDS011;2273;48.464;11.926;2023-04-24T04:30:12;3.23;;;2.83;;
4521;SDS011;2273;48.464;11.926;2023-04-24T04:32:46;4.30;;;2.80;;
4521;SDS011;2273;48.464;11.926;2023-04-24T04:35:12;7.33;;;2.83;;
4521;SDS011;2273;48.464;11.926;2023-04-24T04:37:38;3.70;;;2.10;;
4521;SDS011;2273;48.464;11.926;2023-04-24T04:40:26;7.03;;;2.57;;
4521;SDS011;2273;48.464;11.926;2023-04-24T04:42:57;4.63;;;2.87;;
4521;SDS011;2273;48.464;11.926;2023-04-24T04:45:25;5.37;;;3.20;;
4521;SDS011;2273;48.464;11.926;2023-04-24T04:48:18;4.77;;;3.20;;
4521;SDS011;2273;48.464;11.926;2023-04-24T04:50:44;4.17;;;2.80;;
4521;SDS011;2273;48.464;11.926;2023-04-24T04:53:10;3.40;;;2.40;;
4521;SDS011;2273;48.464;11.926;2023-04-24T04:55:37;3.40;;;2.53;;
4521;SDS011;2273;48.464;11.926;2023-04-24T04:58:12;3.00;;;2.33;;
4521;SDS011;2273;48.464;11.926;2023-04-24T05:00:38;3.47;;;2.77;;
4521;SDS011;2273;48.464;11.926;2023-04-24T05:03:26;3.83;;;2.60;;
4521;SDS011;2273;48.464;11.926;2023-04-24T05:05:58;4.57;;;2.60;;
4521;SDS011;2273;48.464;11.926;2023-04-24T05:08:25;3.27;;;2.67;;
4521;SDS011;2273;48.464;11.926;2023-04-24T05:10:50;5.40;;;3.00;;
4521;SDS011;2273;48.464;11.926;2023-04-24T05:13:16;5.23;;;2.87;;
4521;SDS011;2273;48.464;11.926;2023-04-24T05:15:41;4.10;;;2.53;;
4521;SDS011;2273;48.464;11.926;2023-04-24T05:18:07;4.80;;;2.63;;
4521;SDS011;2273;48.464;11.926;2023-04-24T05:20:33;4.67;;;2.80;;
4521;SDS011;2273;48.464;11.926;2023-04-24T05:22:59;3.83;;;2.50;;
4521;SDS011;2273;48.464;11.926;2023-04-24T05:25:26;5.10;;;2.80;;
4521;SDS011;2273;48.464;11.926;2023-04-24T05:27:59;4.57;;;2.60;;
4521;SDS011;2273;48.464;11.926;2023-04-24T05:30:24;3.73;;;2.60;;
4521;SDS011;2273;48.464;11.926;2023-04-24T05:32:50;3.90;;;2.63;;
4521;SDS011;2273;48.464;11.926;2023-04-24T05:35:16;6.80;;;3.13;;
4521;SDS011;2273;48.464;11.926;2023-04-24T05:37:42;3.67;;;2.77;;
4521;SDS011;2273;48.464;11.926;2023-04-24T05:40:08;6.13;;;3.83;;
4521;SDS011;2273;48.464;11.926;2023-04-24T05:42:35;6.83;;;3.90;;
4521;SDS011;2273;48.464;11.926;2023-04-24T05:45:01;7.47;;;4.30;;
4521;SDS011;2273;48.464;11.926;2023-04-24T05:47:26;7.53;;;4.20;;
4521;SDS011;2273;48.464;11.926;2023-04-24T05:49:52;5.87;;;3.47;;
4521;SDS011;2273;48.464;11.926;2023-04-24T05:52:18;6.70;;;4.17;;
4521;SDS011;2273;48.464;11.926;2023-04-24T05:54:44;12.07;;;5.47;;
4521;SDS011;2273;48.464;11.926;2023-04-24T05:57:14;12.63;;;6.43;;
4521;SDS011;2273;48.464;11.926;2023-04-24T05:59:52;9.27;;;5.10;;
4521;SDS011;2273;48.464;11.926;2023-04-24T06:02:19;9.97;;;5.10;;
4521;SDS011;2273;48.464;11.926;2023-04-24T06:04:45;7.33;;;4.17;;
4521;SDS011;2273;48.464;11.926;2023-04-24T06:07:10;10.10;;;5.20;;
4521;SDS011;2273;48.464;11.926;2023-04-24T06:09:36;8.10;;;3.93;;
4521;SDS011;2273;48.464;11.926;2023-04-24T06:12:02;7.93;;;4.63;;
4521;SDS011;2273;48.464;11.926;2023-04-24T06:14:41;5.17;;;3.17;;
4521;SDS011;2273;48.464;11.926;2023-04-24T06:17:17;7.40;;;3.27;;
4521;SDS011;2273;48.464;11.926;2023-04-24T06:19:44;4.77;;;3.40;;
4521;SDS011;2273;48.464;11.926;2023-04-24T06:22:10;6.00;;;2.90;;
4521;SDS011;2273;48.464;11.926;2023-04-24T06:24:35;7.37;;;3.60;;
4521;SDS011;2273;48.464;11.926;2023-04-24T06:27:01;5.10;;;2.73;;
4521;SDS011;2273;48.464;11.926;2023-04-24T06:29:27;5.53;;;2.77;;
4521;SDS011;2273;48.464;11.926;2023-04-24T06:31:52;3.43;;;3.00;;
4521;SDS011;2273;48.464;11.926;2023-04-24T06:34:18;3.07;;;2.60;;
4521;SDS011;2273;48.464;11.926;2023-04-24T06:36:43;6.13;;;2.73;;
4521;SDS011;2273;48.464;11.926;2023-04-24T06:39:09;4.57;;;2.80;;
4521;SDS011;2273;48.464;11.926;2023-04-24T06:41:34;3.70;;;2.47;;
4521;SDS011;2273;48.464;11.926;2023-04-24T06:44:00;4.40;;;2.70;;
4521;SDS011;2273;48.464;11.926;2023-04-24T06:46:26;4.80;;;3.20;;
4521;SDS011;2273;48.464;11.926;2023-04-24T06:48:55;3.37;;;2.47;;
4521;SDS011;2273;48.464;11.926;2023-04-24T06:51:24;4.07;;;2.87;;
4521;SDS011;2273;48.464;11.926;2023-04-24T06:53:53;3.60;;;2.63;;
4521;SDS011;2273;48.464;11.926;2023-04-24T06:56:19;6.00;;;2.67;;
4521;SDS011;2273;48.464;11.926;2023-04-24T06:58:45;3.20;;;2.00;;
4521;SDS011;2273;48.464;11.926;2023-04-24T07:01:11;3.47;;;2.23;;
4521;SDS011;2273;48.464;11.926;2023-04-24T07:03:36;2.93;;;2.13;;
4521;SDS011;2273;48.464;11.926;2023-04-24T07:06:02;6.20;;;2.67;;
4521;SDS011;2273;48.464;11.926;2023-04-24T07:08:28;4.77;;;2.87;;
4521;SDS011;2273;48.464;11.926;2023-04-24T07:10:55;2.90;;;2.00;;
4521;SDS011;2273;48.464;11.926;2023-04-24T07:13:21;3.13;;;2.43;;
4521;SDS011;2273;48.464;11.926;2023-04-24T07:15:48;3.50;;;2.23;;
4521;SDS011;2273;48.464;11.926;2023-04-24T07:18:15;3.47;;;2.53;;
4521;SDS011;2273;48.464;11.926;2023-04-24T07:20:41;3.07;;;2.30;;
4521;SDS011;2273;48.464;11.926;2023-04-24T07:23:07;2.70;;;2.30;;
4521;SDS011;2273;48.464;11.926;2023-04-24T07:25:32;3.00;;;2.10;;
4521;SDS011;2273;48.464;11.926;2023-04-24T07:27:58;5.80;;;2.47;;
4521;SDS011;2273;48.464;11.926;2023-04-24T07:30:24;2.57;;;2.07;;
4521;SDS011;2273;48.464;11.926;2023-04-24T07:32:49;2.93;;;2.10;;
4521;SDS011;2273;48.464;11.926;2023-04-24T07:35:15;5.17;;;2.27;;
4521;SDS011;2273;48.464;11.926;2023-04-24T07:37:41;3.73;;;2.50;;
4521;SDS011;2273;48.464;11.926;2023-04-24T07:40:11;3.43;;;2.03;;
4521;SDS011;2273;48.464;11.926;2023-04-24T07:42:37;3.63;;;2.13;;
4521;SDS011;2273;48.464;11.926;2023-04-24T07:45:03;2.37;;;1.80;;
4521;SDS011;2273;48.464;11.926;2023-04-24T07:47:29;3.27;;;2.03;;
4521;SDS011;2273;48.464;11.926;2023-04-24T07:49:55;2.80;;;1.90;;
4521;SDS011;2273;48.464;11.926;2023-04-24T07:52:20;4.20;;;2.53;;
4521;SDS011;2273;48.464;11.926;2023-04-24T07:54:46;4.63;;;2.37;;
4521;SDS011;2273;48.464;11.926;2023-04-24T07:57:11;2.70;;;2.27;;
4521;SDS011;2273;48.464;11.926;2023-04-24T07:59:37;4.60;;;2.30;;
4521;SDS011;2273;48.464;11.926;2023-04-24T08:02:02;2.70;;;1.80;;
4521;SDS011;2273;48.464;11.926;2023-04-24T08:04:27;2.60;;;1.83;;
4521;SDS011;2273;48.464;11.926;2023-04-24T08:06:53;3.50;;;2.00;;
4521;SDS011;2273;48.464;11.926;2023-04-24T08:09:18;4.20;;;2.43;;
4521;SDS011;2273;48.464;11.926;2023-04-24T08:11:44;2.97;;;2.20;;
4521;SDS011;2273;48.464;11.926;2023-04-24T08:14:10;3.00;;;2.20;;
4521;SDS011;2273;48.464;11.926;2023-04-24T08:16:37;4.60;;;2.40;;
4521;SDS011;2273;48.464;11.926;2023-04-24T08:19:02;5.60;;;2.20;;
4521;SDS011;2273;48.464;11.926;2023-04-24T08:21:28;2.30;;;1.73;;
4521;SDS011;2273;48.464;11.926;2023-04-24T08:23:53;2.90;;;2.03;;
4521;SDS011;2273;48.464;11.926;2023-04-24T08:26:19;2.30;;;1.50;;
4521;SDS011;2273;48.464;11.926;2023-04-24T08:28:44;2.27;;;1.70;;
4521;SDS011;2273;48.464;11.926;2023-04-24T08:31:09;6.50;;;2.03;;
4521;SDS011;2273;48.464;11.926;2023-04-24T08:33:35;2.60;;;2.00;;
4521;SDS011;2273;48.464;11.926;2023-04-24T08:36:01;3.80;;;2.20;;
4521;SDS011;2273;48.464;11.926;2023-04-24T08:38:28;2.50;;;1.70;;
4521;SDS011;2273;48.464;11.926;2023-04-24T08:40:53;2.83;;;2.10;;
4521;SDS011;2273;48.464;11.926;2023-04-24T08:43:20;3.17;;;2.43;;
4521;SDS011;2273;48.464;11.926;2023-04-24T08:45:47;2.93;;;2.37;;
4521;SDS011;2273;48.464;11.926;2023-04-24T08:48:12;3.27;;;1.90;;
4521;SDS011;2273;48.464;11.926;2023-04-24T08:50:38;2.83;;;2.13;;
4521;SDS011;2273;48.464;11.926;2023-04-24T08:53:07;3.20;;;2.73;;
4521;SDS011;2273;48.464;11.926;2023-04-24T08:55:33;2.63;;;2.20;;
4521;SDS011;2273;48.464;11.926;2023-04-24T08:57:59;3.73;;;2.10;;
4521;SDS011;2273;48.464;11.926;2023-04-24T09:00:25;3.10;;;1.93;;
4521;SDS011;2273;48.464;11.926;2023-04-24T09:02:52;2.90;;;2.40;;
4521;SDS011;2273;48.464;11.926;2023-04-24T09:05:18;3.27;;;2.30;;
4521;SDS011;2273;48.464;11.926;2023-04-24T09:07:44;9.53;;;2.57;;
4521;SDS011;2273;48.464;11.926;2023-04-24T09:10:11;5.17;;;2.47;;
4521;SDS011;2273;48.464;11.926;2023-04-24T09:12:36;3.33;;;2.30;;
4521;SDS011;2273;48.464;11.926;2023-04-24T09:15:02;13.93;;;3.37;;
4521;SDS011;2273;48.464;11.926;2023-04-24T09:17:31;3.13;;;2.47;;
4521;SDS011;2273;48.464;11.926;2023-04-24T09:19:57;3.50;;;2.73;;
4521;SDS011;2273;48.464;11.926;2023-04-24T09:22:22;4.50;;;3.33;;
4521;SDS011;2273;48.464;11.926;2023-04-24T09:24:48;4.00;;;2.97;;
4521;SDS011;2273;48.464;11.926;2023-04-24T09:27:28;4.27;;;3.20;;
4521;SDS011;2273;48.464;11.926;2023-04-24T09:29:56;3.70;;;2.93;;
4521;SDS011;2273;48.464;11.926;2023-04-24T09:32:23;5.30;;;3.13;;
4521;SDS011;2273;48.464;11.926;2023-04-24T09:35:04;3.33;;;2.73;;
4521;SDS011;2273;48.464;11.926;2023-04-24T09:37:48;5.00;;;3.00;;
4521;SDS011;2273;48.464;11.926;2023-04-24T09:40:15;4.73;;;2.90;;
4521;SDS011;2273;48.464;11.926;2023-04-24T09:42:56;6.13;;;3.77;;
4521;SDS011;2273;48.464;11.926;2023-04-24T09:45:36;6.80;;;4.17;;
4521;SDS011;2273;48.464;11.926;2023-04-24T09:48:03;13.27;;;8.03;;
4521;SDS011;2273;48.464;11.926;2023-04-24T09:50:30;5.77;;;4.17;;
4521;SDS011;2273;48.464;11.926;2023-04-24T09:53:02;4.30;;;2.90;;
4521;SDS011;2273;48.464;11.926;2023-04-24T09:55:29;10.07;;;4.70;;
4521;SDS011;2273;48.464;11.926;2023-04-24T09:57:55;9.83;;;5.50;;
4521;SDS011;2273;48.464;11.926;2023-04-24T10:00:26;4.27;;;3.20;;
4521;SDS011;2273;48.464;11.926;2023-04-24T10:03:04;5.00;;;3.87;;
4521;SDS011;2273;48.464;11.926;2023-04-24T10:05:31;4.00;;;2.80;;
4521;SDS011;2273;48.464;11.926;2023-04-24T10:08:09;7.17;;;4.50;;
4521;SDS011;2273;48.464;11.926;2023-04-24T10:10:41;4.40;;;3.40;;
4521;SDS011;2273;48.464;11.926;2023-04-24T10:13:07;6.40;;;3.70;;
4521;SDS011;2273;48.464;11.926;2023-04-24T10:15:34;7.00;;;3.97;;
4521;SDS011;2273;48.464;11.926;2023-04-24T10:18:00;3.53;;;2.70;;
4521;SDS011;2273;48.464;11.926;2023-04-24T10:20:27;9.57;;;5.07;;
4521;SDS011;2273;48.464;11.926;2023-04-24T10:22:56;7.43;;;3.37;;
4521;SDS011;2273;48.464;11.926;2023-04-24T10:25:23;8.60;;;4.40;;
4521;SDS011;2273;48.464;11.926;2023-04-24T10:27:51;6.17;;;3.80;;
4521;SDS011;2273;48.464;11.926;2023-04-24T10:30:18;5.13;;;2.50;;
4521;SDS011;2273;48.464;11.926;2023-04-24T10:32:45;4.33;;;2.77;;
4521;SDS011;2273;48.464;11.926;2023-04-24T10:35:14;8.77;;;4.40;;
4521;SDS011;2273;48.464;11.926;2023-04-24T10:37:45;4.93;;;3.00;;
4521;SDS011;2273;48.464;11.926;2023-04-24T10:40:12;5.53;;;3.50;;
4521;SDS011;2273;48.464;11.926;2023-04-24T10:42:42;6.13;;;2.73;;
4521;SDS011;2273;48.464;11.926;2023-04-24T10:45:15;9.73;;;5.43;;
4521;SDS011;2273;48.464;11.926;2023-04-24T10:47:41;5.10;;;3.03;;
4521;SDS011;2273;48.464;11.926;2023-04-24T10:50:09;3.60;;;2.37;;
4521;SDS011;2273;48.464;11.926;2023-04-24T10:52:47;3.67;;;2.50;;
4521;SDS011;2273;48.464;11.926;2023-04-24T10:55:14;4.33;;;2.40;;
4521;SDS011;2273;48.464;11.926;2023-04-24T10:57:40;3.80;;;2.53;;
4521;SDS011;2273;48.464;11.926;2023-04-24T11:00:26;5.37;;;2.53;;
4521;SDS011;2273;48.464;11.926;2023-04-24T11:02:52;5.77;;;2.57;;
4521;SDS011;2273;48.464;11.926;2023-04-24T11:05:18;3.40;;;2.67;;
4521;SDS011;2273;48.464;11.926;2023-04-24T11:10:39;3.20;;;2.60;;
4521;SDS011;2273;48.464;11.926;2023-04-24T11:13:06;3.70;;;2.50;;
4521;SDS011;2273;48.464;11.926;2023-04-24T11:15:32;4.23;;;2.50;;
4521;SDS011;2273;48.464;11.926;2023-04-24T11:17:57;2.90;;;2.27;;
4521;SDS011;2273;48.464;11.926;2023-04-24T11:20:23;4.07;;;2.63;;
4521;SDS011;2273;48.464;11.926;2023-04-24T11:22:51;3.40;;;2.63;;
4521;SDS011;2273;48.464;11.926;2023-04-24T11:25:17;3.13;;;2.00;;
4521;SDS011;2273;48.464;11.926;2023-04-24T11:27:44;5.77;;;2.80;;
4521;SDS011;2273;48.464;11.926;2023-04-24T11:30:11;3.80;;;2.70;;
4521;SDS011;2273;48.464;11.926;2023-04-24T11:32:37;6.00;;;2.57;;
4521;SDS011;2273;48.464;11.926;2023-04-24T11:37:41;5.00;;;3.10;;
4521;SDS011;2273;48.464;11.926;2023-04-24T11:40:08;4.50;;;2.33;;
4521;SDS011;2273;48.464;11.926;2023-04-24T11:42:38;3.17;;;2.40;;
4521;SDS011;2273;48.464;11.926;2023-04-24T11:45:09;5.30;;;2.23;;
4521;SDS011;2273;48.464;11.926;2023-04-24T11:47:35;4.70;;;3.20;;
4521;SDS011;2273;48.464;11.926;2023-04-24T11:50:01;6.53;;;3.50;;
4521;SDS011;2273;48.464;11.926;2023-04-24T11:52:27;4.40;;;3.10;;
4521;SDS011;2273;48.464;11.926;2023-04-24T11:54:53;5.97;;;4.27;;
4521;SDS011;2273;48.464;11.926;2023-04-24T11:57:19;5.20;;;3.20;;
4521;SDS011;2273;48.464;11.926;2023-04-24T11:59:46;4.03;;;3.00;;
4521;SDS011;2273;48.464;11.926;2023-04-24T12:02:22;7.70;;;2.97;;
4521;SDS011;2273;48.464;11.926;2023-04-24T12:04:48;3.67;;;3.10;;
4521;SDS011;2273;48.464;11.926;2023-04-24T12:07:14;3.90;;;2.40;;
4521;SDS011;2273;48.464;11.926;2023-04-24T12:09:43;5.17;;;2.40;;
4521;SDS011;2273;48.464;11.926;2023-04-24T12:12:11;3.67;;;2.60;;
4521;SDS011;2273;48.464;11.926;2023-04-24T12:14:47;2.90;;;2.50;;
4521;SDS011;2273;48.464;11.926;2023-04-24T12:17:23;4.47;;;2.83;;
4521;SDS011;2273;48.464;11.926;2023-04-24T12:19:49;3.70;;;3.20;;
4521;SDS011;2273;48.464;11.926;2023-04-24T12:22:16;3.30;;;2.47;;
4521;SDS011;2273;48.464;11.926;2023-04-24T12:25:02;4.10;;;3.10;;
4521;SDS011;2273;48.464;11.926;2023-04-24T12:27:32;3.57;;;2.90;;
4521;SDS011;2273;48.464;11.926;2023-04-24T12:30:02;4.80;;;3.00;;
4521;SDS011;2273;48.464;11.926;2023-04-24T12:32:29;5.00;;;2.90;;
4521;SDS011;2273;48.464;11.926;2023-04-24T12:34:55;3.70;;;2.43;;
4521;SDS011;2273;48.464;11.926;2023-04-24T12:37:22;3.83;;;2.93;;
4521;SDS011;2273;48.464;11.926;2023-04-24T12:39:58;3.23;;;2.50;;
4521;SDS011;2273;48.464;11.926;2023-04-24T12:42:28;3.57;;;2.30;;
4521;SDS011;2273;48.464;11.926;2023-04-24T12:44:58;3.60;;;2.67;;
4521;SDS011;2273;48.464;11.926;2023-04-24T12:47:25;3.77;;;2.60;;
4521;SDS011;2273;48.464;11.926;2023-04-24T12:49:51;4.90;;;3.23;;
4521;SDS011;2273;48.464;11.926;2023-04-24T12:52:21;4.03;;;2.70;;
4521;SDS011;2273;48.464;11.926;2023-04-24T12:54:52;4.80;;;2.63;;
4521;SDS011;2273;48.464;11.926;2023-04-24T12:57:19;7.50;;;2.93;;
4521;SDS011;2273;48.464;11.926;2023-04-24T12:59:44;4.70;;;2.70;;
4521;SDS011;2273;48.464;11.926;2023-04-24T13:02:10;3.90;;;2.63;;
4521;SDS011;2273;48.464;11.926;2023-04-24T13:04:36;3.50;;;2.53;;
4521;SDS011;2273;48.464;11.926;2023-04-24T13:07:02;4.43;;;2.80;;
4521;SDS011;2273;48.464;11.926;2023-04-24T13:09:27;3.60;;;2.53;;
4521;SDS011;2273;48.464;11.926;2023-04-24T13:11:53;3.27;;;2.10;;
4521;SDS011;2273;48.464;11.926;2023-04-24T13:14:18;4.20;;;2.67;;
4521;SDS011;2273;48.464;11.926;2023-04-24T13:16:44;3.53;;;2.30;;
4521;SDS011;2273;48.464;11.926;2023-04-24T13:19:10;6.13;;;2.60;;
4521;SDS011;2273;48.464;11.926;2023-04-24T13:21:35;4.20;;;2.40;;
4521;SDS011;2273;48.464;11.926;2023-04-24T13:24:00;6.67;;;2.27;;
4521;SDS011;2273;48.464;11.926;2023-04-24T13:26:26;4.90;;;2.30;;
4521;SDS011;2273;48.464;11.926;2023-04-24T13:28:51;3.47;;;2.30;;
4521;SDS011;2273;48.464;11.926;2023-04-24T13:31:17;5.50;;;2.93;;
4521;SDS011;2273;48.464;11.926;2023-04-24T13:33:42;4.37;;;2.80;;
4521;SDS011;2273;48.464;11.926;2023-04-24T13:36:08;2.73;;;2.20;;
4521;SDS011;2273;48.464;11.926;2023-04-24T13:38:33;4.17;;;2.27;;
4521;SDS011;2273;48.464;11.926;2023-04-24T13:40:59;3.20;;;2.33;;
4521;SDS011;2273;48.464;11.926;2023-04-24T13:43:24;3.20;;;2.20;;
4521;SDS011;2273;48.464;11.926;2023-04-24T13:45:50;5.27;;;3.40;;
4521;SDS011;2273;48.464;11.926;2023-04-24T13:48:15;6.27;;;3.13;;
4521;SDS011;2273;48.464;11.926;2023-04-24T13:50:41;3.40;;;2.67;;
4521;SDS011;2273;48.464;11.926;2023-04-24T13:53:07;3.80;;;2.40;;
4521;SDS011;2273;48.464;11.926;2023-04-24T13:55:32;5.43;;;2.40;;
4521;SDS011;2273;48.464;11.926;2023-04-24T13:57:58;3.50;;;2.07;;
4521;SDS011;2273;48.464;11.926;2023-04-24T14:00:23;2.47;;;2.00;;
4521;SDS011;2273;48.464;11.926;2023-04-24T14:02:49;3.20;;;2.20;;
4521;SDS011;2273;48.464;11.926;2023-04-24T14:05:15;3.10;;;2.30;;
4521;SDS011;2273;48.464;11.926;2023-04-24T14:07:40;4.53;;;2.40;;
4521;SDS011;2273;48.464;11.926;2023-04-24T14:10:06;3.60;;;2.40;;
4521;SDS011;2273;48.464;11.926;2023-04-24T14:12:32;3.50;;;2.30;;
4521;SDS011;2273;48.464;11.926;2023-04-24T14:14:58;3.37;;;2.30;;
4521;SDS011;2273;48.464;11.926;2023-04-24T14:17:23;3.00;;;2.30;;
4521;SDS011;2273;48.464;11.926;2023-04-24T14:19:49;3.30;;;2.30;;
4521;SDS011;2273;48.464;11.926;2023-04-24T14:22:15;4.00;;;2.40;;
4521;SDS011;2273;48.464;11.926;2023-04-24T14:24:41;3.23;;;2.10;;
4521;SDS011;2273;48.464;11.926;2023-04-24T14:27:07;2.70;;;2.23;;
4521;SDS011;2273;48.464;11.926;2023-04-24T14:29:32;3.60;;;2.23;;
4521;SDS011;2273;48.464;11.926;2023-04-24T14:31:58;5.53;;;2.07;;
4521;SDS011;2273;48.464;11.926;2023-04-24T14:34:23;3.43;;;2.67;;
4521;SDS011;2273;48.464;11.926;2023-04-24T14:36:48;5.77;;;3.97;;
4521;SDS011;2273;48.464;11.926;2023-04-24T14:39:17;3.90;;;2.50;;
4521;SDS011;2273;48.464;11.926;2023-04-24T14:41:42;9.07;;;2.20;;
4521;SDS011;2273;48.464;11.926;2023-04-24T14:44:08;3.60;;;1.90;;
4521;SDS011;2273;48.464;11.926;2023-04-24T14:46:33;3.47;;;2.30;;
4521;SDS011;2273;48.464;11.926;2023-04-24T14:48:59;2.70;;;1.93;;
4521;SDS011;2273;48.464;11.926;2023-04-24T14:51:24;2.73;;;2.07;;
4521;SDS011;2273;48.464;11.926;2023-04-24T14:53:50;5.87;;;2.40;;
4521;SDS011;2273;48.464;11.926;2023-04-24T14:56:16;3.17;;;2.63;;
4521;SDS011;2273;48.464;11.926;2023-04-24T14:58:42;5.13;;;2.30;;
4521;SDS011;2273;48.464;11.926;2023-04-24T15:01:07;2.90;;;2.27;;
4521;SDS011;2273;48.464;11.926;2023-04-24T15:03:33;2.67;;;2.00;;
4521;SDS011;2273;48.464;11.926;2023-04-24T15:05:58;5.93;;;2.93;;